Time;durP1;ratioP1;P1;durP2;ratioP2;P2;SDS_P1;SDS_P2;PMS_P1;PMS_P2;Temp;Humidity;BMP_temperature;BMP_pressure;BME280_temperature;BME280_humidity;BME280_pressure;Samples;Min_cycle;Max_cycle;Signal;HPM_P1;HPM_P2
2021/07/29 00:00:32;;;;;;;3.83;2.13;;;17.40;83.70;;;;;;5093502;28;20089;-79
2021/07/29 00:02:58;;;;;;;4.18;1.95;;;17.40;83.80;;;;;;5059048;28;20032;-79
2021/07/29 00:05:24;;;;;;;3.47;2.10;;;17.40;83.80;;;;;;5093808;28;20357;-81
2021/07/29 00:07:50;;;;;;;2.72;1.80;;;17.40;83.80;;;;;;5092055;28;20380;-79
2021/07/29 00:10:17;;;;;;;4.85;2.03;;;17.40;83.80;;;;;;5075506;28;20039;-79
2021/07/29 00:12:42;;;;;;;5.20;2.20;;;17.40;84.00;;;;;;5091973;28;20078;-82
2021/07/29 00:15:13;;;;;;;4.88;2.20;;;17.40;83.90;;;;;;5092324;28;20025;-78
2021/07/29 00:20:39;;;;;;;4.38;2.50;;;17.30;84.00;;;;;;5093998;28;20032;-79
2021/07/29 00:23:05;;;;;;;5.15;2.13;;;17.40;84.00;;;;;;5092544;28;20020;-78
2021/07/29 00:25:31;;;;;;;2.78;1.95;;;17.30;84.10;;;;;;5093458;28;20032;-79
2021/07/29 00:27:57;;;;;;;5.97;2.22;;;17.30;84.10;;;;;;5092794;28;20121;-79
2021/07/29 00:30:25;;;;;;;3.50;1.67;;;17.30;84.00;;;;;;5092020;28;20429;-79
2021/07/29 00:32:52;;;;;;;3.63;1.80;;;17.30;83.70;;;;;;5093248;28;20043;-79
2021/07/29 00:35:18;;;;;;;5.32;2.08;;;17.30;83.60;;;;;;5092080;28;20055;-79
2021/07/29 00:37:49;;;;;;;4.78;1.90;;;17.30;83.40;;;;;;5095232;28;20107;-85
2021/07/29 00:40:16;;;;;;;3.75;1.58;;;17.20;83.50;;;;;;5097687;28;20047;-79
2021/07/29 00:42:42;;;;;;;3.63;1.95;;;17.20;83.50;;;;;;5097036;28;20479;-82
2021/07/29 00:45:08;;;;;;;3.20;1.50;;;17.20;83.50;;;;;;5095855;28;20031;-79
2021/07/29 00:47:35;;;;;;;5.28;2.00;;;17.20;83.50;;;;;;5095916;28;20491;-79
2021/07/29 00:50:02;;;;;;;3.22;1.55;;;17.10;83.40;;;;;;5098626;28;20107;-78
2021/07/29 00:52:28;;;;;;;2.42;1.33;;;17.10;83.30;;;;;;5095621;28;20035;-79
2021/07/29 00:54:53;;;;;;;4.82;1.40;;;17.20;83.40;;;;;;5096112;28;20064;-80
2021/07/29 00:57:22;;;;;;;3.25;1.67;;;17.10;83.40;;;;;;5079045;28;20113;-80
2021/07/29 00:59:49;;;;;;;3.85;1.70;;;17.10;83.50;;;;;;5095722;28;20034;-83
2021/07/29 01:02:15;;;;;;;4.35;1.48;;;17.00;83.50;;;;;;5096452;28;20028;-80
2021/07/29 01:04:41;;;;;;;3.55;1.73;;;16.90;83.70;;;;;;5097255;28;20378;-80
2021/07/29 01:07:06;;;;;;;2.38;1.30;;;16.80;83.70;;;;;;5095550;28;20020;-80
2021/07/29 01:09:32;;;;;;;4.80;1.67;;;16.80;83.90;;;;;;5062167;28;20480;-79
2021/07/29 01:11:58;;;;;;;2.47;1.50;;;16.70;83.90;;;;;;5095535;28;20034;-79
2021/07/29 01:14:23;;;;;;;3.75;1.92;;;16.70;84.20;;;;;;5095197;28;20080;-80
2021/07/29 01:16:49;;;;;;;4.35;1.63;;;16.60;84.30;;;;;;5095426;28;20068;-81
2021/07/29 01:19:18;;;;;;;4.63;1.77;;;16.50;84.50;;;;;;5095803;28;20413;-79
2021/07/29 01:21:43;;;;;;;4.30;1.90;;;16.40;84.70;;;;;;5095691;28;20092;-79
2021/07/29 01:24:09;;;;;;;4.30;1.40;;;16.40;84.90;;;;;;5078238;28;20497;-81
2021/07/29 01:26:35;;;;;;;4.75;1.65;;;16.40;85.00;;;;;;5095010;28;20036;-80
2021/07/29 01:29:01;;;;;;;4.28;1.83;;;16.30;85.30;;;;;;5095338;28;20032;-79
2021/07/29 01:31:27;;;;;;;3.55;1.88;;;16.20;85.40;;;;;;5096631;28;20119;-79
2021/07/29 01:33:54;;;;;;;3.28;1.92;;;16.20;85.60;;;;;;5095771;28;20524;-81
2021/07/29 01:36:20;;;;;;;3.47;1.85;;;16.20;85.70;;;;;;5095307;28;20097;-80
2021/07/29 01:38:46;;;;;;;4.60;2.13;;;16.30;85.70;;;;;;5094863;28;20032;-80
2021/07/29 01:41:11;;;;;;;3.05;1.90;;;16.30;85.50;;;;;;5095450;28;20405;-79
2021/07/29 01:43:37;;;;;;;6.70;1.70;;;16.30;85.40;;;;;;5096666;28;20452;-79
2021/07/29 01:46:03;;;;;;;4.03;1.92;;;16.20;85.30;;;;;;5078680;28;20036;-80
2021/07/29 01:48:30;;;;;;;3.88;2.28;;;16.30;85.40;;;;;;5094150;28;20032;-79
2021/07/29 01:50:55;;;;;;;3.50;2.03;;;16.30;85.30;;;;;;5095985;28;20035;-81
2021/07/29 01:53:21;;;;;;;3.58;1.80;;;16.30;85.20;;;;;;5094589;28;20119;-79
2021/07/29 01:55:47;;;;;;;7.18;2.25;;;16.30;85.20;;;;;;5078077;28;20352;-80
2021/07/29 01:58:15;;;;;;;3.17;1.83;;;16.30;85.20;;;;;;5094757;28;20055;-79
2021/07/29 02:00:43;;;;;;;4.40;2.15;;;16.30;85.20;;;;;;5094889;28;20140;-80
2021/07/29 02:03:09;;;;;;;3.83;1.83;;;16.30;85.20;;;;;;5094277;28;20027;-79
2021/07/29 02:05:35;;;;;;;4.82;2.00;;;16.30;85.10;;;;;;5094825;28;20089;-79
2021/07/29 02:08:01;;;;;;;3.20;2.20;;;16.30;85.10;;;;;;5077627;28;20437;-80
2021/07/29 02:10:28;;;;;;;4.60;2.15;;;16.30;85.10;;;;;;5094882;28;20030;-79
2021/07/29 02:12:55;;;;;;;5.35;2.67;;;16.30;85.10;;;;;;5094708;28;20117;-79
2021/07/29 02:15:21;;;;;;;4.25;2.42;;;16.20;85.20;;;;;;5094334;28;20024;-79
2021/07/29 02:17:47;;;;;;;3.95;2.25;;;16.20;85.40;;;;;;5094561;28;20024;-79
2021/07/29 02:20:13;;;;;;;5.15;2.40;;;16.10;85.60;;;;;;5095379;28;20333;-79
2021/07/29 02:22:39;;;;;;;4.47;2.50;;;16.10;85.60;;;;;;5095597;28;20157;-80
2021/07/29 02:25:07;;;;;;;5.93;2.30;;;16.00;85.70;;;;;;5094108;28;20110;-79
2021/07/29 02:27:33;;;;;;;4.32;2.33;;;16.00;85.80;;;;;;5077443;28;20024;-79
2021/07/29 02:29:59;;;;;;;4.95;2.42;;;16.00;85.70;;;;;;5094406;28;20020;-83
2021/07/29 02:32:25;;;;;;;5.35;2.63;;;16.00;85.60;;;;;;5096195;28;20051;-80
2021/07/29 02:34:54;;;;;;;6.82;2.50;;;16.00;85.70;;;;;;5076917;28;20158;-79
2021/07/29 02:37:20;;;;;;;7.80;2.45;;;16.00;85.60;;;;;;5093963;28;20371;-78
2021/07/29 02:39:46;;;;;;;7.82;2.90;;;16.00;85.50;;;;;;5094926;28;20074;-78
2021/07/29 02:42:12;;;;;;;8.20;2.20;;;16.00;85.50;;;;;;5077461;28;20456;-79
2021/07/29 02:44:38;;;;;;;4.45;2.25;;;16.00;85.50;;;;;;5112748;28;20098;-77
2021/07/29 02:47:03;;;;;;;6.05;2.03;;;16.00;85.50;;;;;;5094622;28;20371;-83
2021/07/29 02:49:29;;;;;;;4.15;2.10;;;16.10;85.40;;;;;;5093666;28;20464;-78
2021/07/29 02:51:55;;;;;;;5.38;2.03;;;16.10;85.10;;;;;;5093716;28;20048;-78
2021/07/29 02:54:21;;;;;;;3.92;2.20;;;16.10;84.90;;;;;;5076649;28;20057;-79
2021/07/29 02:56:47;;;;;;;5.90;1.88;;;16.10;84.80;;;;;;5095326;28;20107;-78
2021/07/29 02:59:12;;;;;;;9.35;2.47;;;16.10;84.80;;;;;;5076718;28;20468;-78
2021/07/29 03:01:38;;;;;;;5.97;2.17;;;16.10;84.70;;;;;;5093119;28;20039;-79
2021/07/29 03:04:04;;;;;;;6.53;2.38;;;16.10;84.70;;;;;;5076328;28;20028;-82
2021/07/29 03:06:29;;;;;;;6.13;2.35;;;16.00;84.50;;;;;;5076611;28;20035;-78
2021/07/29 03:08:57;;;;;;;3.67;1.52;;;16.00;84.50;;;;;;5094945;28;20141;-79
2021/07/29 03:11:23;;;;;;;5.72;2.40;;;16.00;84.50;;;;;;5093643;28;20107;-79
2021/07/29 03:13:49;;;;;;;6.35;2.30;;;16.00;84.50;;;;;;5059933;28;20060;-79
2021/07/29 03:16:14;;;;;;;6.43;2.00;;;16.00;84.60;;;;;;5060210;28;20032;-79
2021/07/29 03:18:40;;;;;;;5.53;1.60;;;15.90;84.60;;;;;;5077959;28;20028;-79
2021/07/29 03:21:07;;;;;;;6.90;1.92;;;15.90;84.70;;;;;;5095772;28;20456;-83
2021/07/29 03:23:33;;;;;;;5.18;1.83;;;15.80;84.70;;;;;;5086715;28;20058;-77
2021/07/29 03:25:59;;;;;;;5.90;1.98;;;15.80;84.80;;;;;;5085556;28;20036;-78
2021/07/29 03:28:24;;;;;;;8.77;1.98;;;15.80;84.80;;;;;;5106330;28;20461;-78
2021/07/29 03:30:52;;;;;;;5.90;1.70;;;15.80;84.90;;;;;;5106814;28;20050;-77
2021/07/29 03:33:18;;;;;;;7.40;1.92;;;15.80;84.90;;;;;;5095832;28;20028;-79
2021/07/29 03:35:43;;;;;;;7.93;2.03;;;15.80;84.80;;;;;;5094487;28;20143;-78
2021/07/29 03:38:09;;;;;;;7.57;2.00;;;15.70;84.70;;;;;;5075955;28;20032;-82
2021/07/29 03:40:36;;;;;;;5.00;1.50;;;15.80;84.80;;;;;;5094659;28;20044;-79
2021/07/29 03:43:03;;;;;;;5.32;2.00;;;15.70;84.90;;;;;;5092699;28;20038;-78
2021/07/29 03:45:29;;;;;;;5.55;1.55;;;15.70;84.90;;;;;;5076178;28;20450;-78
2021/07/29 03:47:55;;;;;;;4.97;1.67;;;15.70;84.90;;;;;;5092718;28;20114;-77
2021/07/29 03:50:21;;;;;;;4.70;1.90;;;15.70;85.00;;;;;;5093949;28;20112;-80
2021/07/29 03:52:47;;;;;;;6.05;1.60;;;15.70;85.10;;;;;;5093552;28;20039;-78
2021/07/29 03:55:13;;;;;;;7.20;2.00;;;15.60;85.10;;;;;;5092226;28;20020;-81
2021/07/29 03:57:38;;;;;;;4.68;1.70;;;15.60;85.20;;;;;;5092361;28;20165;-78
2021/07/29 04:00:05;;;;;;;4.95;1.52;;;15.60;85.30;;;;;;5075435;28;20024;-77
2021/07/29 04:02:31;;;;;;;5.35;1.60;;;15.60;85.40;;;;;;5093496;28;20027;-78
2021/07/29 04:04:57;;;;;;;7.65;2.03;;;15.60;85.50;;;;;;5093328;28;20055;-78
2021/07/29 04:07:23;;;;;;;5.05;2.00;;;15.50;85.50;;;;;;5092660;28;20107;-79
2021/07/29 04:09:50;;;;;;;5.45;1.95;;;15.60;86.00;;;;;;5092437;28;20046;-78
2021/07/29 04:12:16;;;;;;;5.95;1.95;;;15.60;85.60;;;;;;5079956;28;20209;-80
2021/07/29 04:14:42;;;;;;;6.13;2.05;;;15.60;85.60;;;;;;5098994;28;20070;-78
2021/07/29 04:17:08;;;;;;;7.20;2.10;;;15.60;85.60;;;;;;5099129;28;20024;-79
2021/07/29 04:19:34;;;;;;;6.65;1.80;;;15.60;85.70;;;;;;5082384;28;20024;-79
2021/07/29 04:22:01;;;;;;;7.20;1.58;;;15.60;85.60;;;;;;5100934;28;20034;-79
2021/07/29 04:24:28;;;;;;;5.28;1.98;;;15.60;85.50;;;;;;5099000;28;20077;-79
2021/07/29 04:26:56;;;;;;;8.68;2.00;;;15.70;85.40;;;;;;5098852;28;20047;-79
2021/07/29 04:29:22;;;;;;;7.75;2.30;;;15.80;85.20;;;;;;5099966;28;20031;-80
2021/07/29 04:31:47;;;;;;;7.43;2.25;;;15.90;85.00;;;;;;5081917;28;20100;-79
2021/07/29 04:34:13;;;;;;;7.25;1.67;;;16.00;84.70;;;;;;5082711;28;20466;-80
2021/07/29 04:36:40;;;;;;;4.95;1.20;;;16.70;83.30;;;;;;5098774;28;20032;-80
2021/07/29 04:39:06;;;;;;;8.45;1.50;;;17.50;81.10;;;;;;5082016;28;20063;-80
2021/07/29 04:41:34;;;;;;;4.60;1.13;;;18.30;78.70;;;;;;5099793;28;20035;-80
2021/07/29 04:43:59;;;;;;;9.93;1.40;;;18.90;76.60;;;;;;5099756;28;20031;-80
2021/07/29 04:46:25;;;;;;;7.15;1.58;;;19.50;74.60;;;;;;5098733;28;20032;-80
2021/07/29 04:48:51;;;;;;;8.57;1.40;;;19.90;73.00;;;;;;5099023;28;20028;-79
2021/07/29 04:51:16;;;;;;;5.13;1.10;;;20.10;72.20;;;;;;5098801;28;20028;-81
2021/07/29 04:53:42;;;;;;;4.28;1.30;;;20.50;71.00;;;;;;5082069;28;20071;-79
2021/07/29 04:56:07;;;;;;;5.20;1.27;;;20.70;70.10;;;;;;5082243;28;20020;-80
2021/07/29 04:58:33;;;;;;;5.13;1.08;;;20.90;69.50;;;;;;5082385;28;20031;-78
2021/07/29 05:01:03;;;;;;;7.80;1.27;;;21.60;68.20;;;;;;5098958;28;20095;-81
2021/07/29 05:03:29;;;;;;;4.78;1.00;;;22.10;66.30;;;;;;5098723;28;20383;-78
2021/07/29 05:05:54;;;;;;;5.90;0.95;;;22.40;65.10;;;;;;5065354;28;20032;-79
2021/07/29 05:08:20;;;;;;;3.25;0.80;;;22.70;64.10;;;;;;5082161;28;20036;-83
2021/07/29 05:10:46;;;;;;;4.38;0.80;;;22.80;63.20;;;;;;5082416;28;20025;-79
2021/07/29 05:13:11;;;;;;;4.00;0.95;;;23.00;62.30;;;;;;5082180;28;20039;-79
2021/07/29 05:15:37;;;;;;;5.75;1.35;;;23.00;62.30;;;;;;5098959;28;20024;-78
2021/07/29 05:18:03;;;;;;;3.92;1.00;;;23.10;62.10;;;;;;5099491;28;20456;-80
2021/07/29 05:20:28;;;;;;;3.95;0.82;;;23.40;60.80;;;;;;5081875;28;20120;-79
2021/07/29 05:22:54;;;;;;;5.88;0.98;;;23.40;60.60;;;;;;5081245;28;20032;-80
2021/07/29 05:25:22;;;;;;;6.53;0.85;;;23.70;60.00;;;;;;5095375;28;20460;-80
2021/07/29 05:27:52;;;;;;;5.25;0.70;;;24.30;58.90;;;;;;5096208;28;20016;-80
2021/07/29 05:30:18;;;;;;;4.57;0.73;;;24.90;57.00;;;;;;5095525;28;20020;-80
2021/07/29 05:32:45;;;;;;;4.68;1.42;;;25.30;55.90;;;;;;5097777;28;20095;-80
2021/07/29 05:35:11;;;;;;;5.07;0.90;;;25.70;54.70;;;;;;5095763;28;20055;-80
2021/07/29 05:37:37;;;;;;;8.15;1.20;;;26.10;53.50;;;;;;5096518;28;20024;-79
2021/07/29 05:40:07;;;;;;;3.97;0.80;;;26.40;52.30;;;;;;5095176;28;20452;-78
2021/07/29 05:42:33;;;;;;;5.18;0.68;;;26.60;51.60;;;;;;5095557;28;20027;-79
2021/07/29 05:45:00;;;;;;;5.32;0.98;;;27.00;51.20;;;;;;5095452;28;20086;-80
2021/07/29 05:47:25;;;;;;;2.88;0.65;;;27.20;49.80;;;;;;5095252;28;20035;-82
2021/07/29 05:49:51;;;;;;;3.08;0.70;;;27.40;49.50;;;;;;5095148;28;20021;-81
2021/07/29 05:52:17;;;;;;;3.45;0.65;;;27.40;48.80;;;;;;5095357;28;20341;-81
2021/07/29 05:54:42;;;;;;;5.32;0.80;;;27.70;48.70;;;;;;5095915;28;20029;-79
2021/07/29 05:57:08;;;;;;;2.80;0.70;;;27.80;48.20;;;;;;5078150;28;20136;-81
2021/07/29 05:59:34;;;;;;;8.07;0.82;;;28.00;47.70;;;;;;5111781;28;20036;-81
2021/07/29 06:01:59;;;;;;;4.30;1.00;;;27.80;46.90;;;;;;5077724;28;20562;-82
2021/07/29 06:04:25;;;;;;;5.03;0.80;;;27.70;47.60;;;;;;5077932;28;20038;-81
2021/07/29 06:06:50;;;;;;;4.65;1.10;;;27.80;47.40;;;;;;5096193;28;20030;-80
2021/07/29 06:09:16;;;;;;;6.20;0.93;;;27.90;47.20;;;;;;5077698;28;20031;-80
2021/07/29 06:11:42;;;;;;;4.60;1.35;;;28.20;46.50;;;;;;5094590;28;20016;-80
2021/07/29 06:14:08;;;;;;;5.15;1.23;;;28.20;46.80;;;;;;5096393;28;20352;-81
2021/07/29 06:16:33;;;;;;;5.07;1.77;;;28.20;46.50;;;;;;5077626;28;20491;-81
2021/07/29 06:19:10;;;;;;;4.55;1.00;;;28.20;46.50;;;;;;5096554;28;20032;-81
2021/07/29 06:21:37;;;;;;;5.45;0.95;;;28.20;46.40;;;;;;5081080;28;20024;-81
2021/07/29 06:24:03;;;;;;;6.38;0.93;;;27.70;46.60;;;;;;5099456;28;20030;-80
2021/07/29 06:26:29;;;;;;;4.32;0.80;;;27.50;47.20;;;;;;5108269;28;20036;-79
2021/07/29 06:28:54;;;;;;;3.75;0.70;;;27.60;47.60;;;;;;5110998;28;20031;-81
2021/07/29 06:31:20;;;;;;;3.80;0.70;;;27.90;46.40;;;;;;5110162;28;20141;-80
2021/07/29 06:33:46;;;;;;;5.82;0.82;;;27.00;47.40;;;;;;5110657;28;20038;-80
2021/07/29 06:36:11;;;;;;;6.22;1.15;;;26.60;48.70;;;;;;5093011;28;20053;-78
2021/07/29 06:38:38;;;;;;;6.95;1.08;;;26.00;49.70;;;;;;5111003;28;20050;-81
2021/07/29 06:41:05;;;;;;;6.88;1.00;;;25.40;50.90;;;;;;5099889;28;20044;-81
2021/07/29 06:43:30;;;;;;;4.53;0.75;;;25.10;51.90;;;;;;5095446;28;20032;-80
2021/07/29 06:46:01;;;;;;;5.00;0.70;;;25.00;51.90;;;;;;5078036;28;20036;-81
2021/07/29 06:48:27;;;;;;;3.83;0.90;;;25.70;51.10;;;;;;5095139;28;20448;-80
2021/07/29 06:50:53;;;;;;;3.30;0.70;;;26.40;48.90;;;;;;5095260;28;20030;-81
2021/07/29 06:53:18;;;;;;;2.67;0.77;;;26.40;49.30;;;;;;5095054;28;20161;-80
2021/07/29 06:55:44;;;;;;;2.50;0.70;;;26.90;49.40;;;;;;5096297;28;20103;-81
2021/07/29 06:58:09;;;;;;;6.72;1.40;;;27.10;48.60;;;;;;5094538;28;20028;-81
2021/07/29 07:00:35;;;;;;;3.80;1.38;;;27.00;48.10;;;;;;5077242;28;20520;-82
2021/07/29 07:03:00;;;;;;;6.45;2.15;;;27.20;47.70;;;;;;5093485;28;20182;-80
2021/07/29 07:05:26;;;;;;;6.07;2.25;;;27.60;47.20;;;;;;5077411;28;20028;-81
2021/07/29 07:07:52;;;;;;;6.97;2.28;;;27.40;47.50;;;;;;5077662;28;20024;-81
2021/07/29 07:10:18;;;;;;;6.05;1.33;;;27.40;46.90;;;;;;5076789;28;20085;-80
2021/07/29 07:12:43;;;;;;;6.85;1.05;;;26.90;47.10;;;;;;5076344;28;20468;-81
2021/07/29 07:15:10;;;;;;;4.35;1.08;;;27.10;46.90;;;;;;5093374;28;20024;-80
2021/07/29 07:17:35;;;;;;;4.20;1.10;;;27.20;46.50;;;;;;5094261;28;20026;-80
2021/07/29 07:20:01;;;;;;;4.45;0.82;;;27.30;47.00;;;;;;5077046;28;20431;-79
2021/07/29 07:22:27;;;;;;;6.32;0.90;;;27.60;46.30;;;;;;5093318;28;20040;-78
2021/07/29 07:24:53;;;;;;;3.78;0.90;;;27.90;45.70;;;;;;5076333;28;20034;-78
2021/07/29 07:27:18;;;;;;;5.68;1.42;;;28.40;44.80;;;;;;5092815;28;20123;-79
2021/07/29 07:29:44;;;;;;;4.93;0.80;;;28.30;44.60;;;;;;5093289;28;20016;-80
2021/07/29 07:32:10;;;;;;;4.88;1.20;;;28.20;45.30;;;;;;5076068;28;20040;-78
2021/07/29 07:34:35;;;;;;;5.93;1.25;;;28.20;45.10;;;;;;5101342;28;20027;-77
2021/07/29 07:37:02;;;;;;;4.93;1.00;;;28.20;45.20;;;;;;5100868;28;20432;-78
2021/07/29 07:39:27;;;;;;;5.60;0.93;;;28.30;44.40;;;;;;5094610;28;20048;-80
2021/07/29 07:41:56;;;;;;;3.67;1.23;;;27.90;44.20;;;;;;5077019;28;20050;-80
2021/07/29 07:44:21;;;;;;;3.90;1.00;;;27.80;45.90;;;;;;5076967;28;20160;-80
2021/07/29 07:46:47;;;;;;;3.47;0.88;;;28.20;45.10;;;;;;5092201;28;20393;-82
2021/07/29 07:49:13;;;;;;;12.00;2.85;;;28.40;43.90;;;;;;5093589;28;20024;-79
2021/07/29 07:51:40;;;;;;;11.27;1.80;;;28.40;43.50;;;;;;5094241;28;20028;-78
2021/07/29 07:54:07;;;;;;;5.95;1.05;;;28.00;43.50;;;;;;5092800;28;20042;-79
2021/07/29 07:56:33;;;;;;;6.35;1.38;;;27.30;45.00;;;;;;5060260;28;20029;-79
2021/07/29 07:58:59;;;;;;;6.75;1.35;;;26.80;46.00;;;;;;5093622;28;20085;-80
2021/07/29 08:01:24;;;;;;;4.43;0.93;;;26.70;46.60;;;;;;5075696;28;20036;-80
2021/07/29 08:03:50;;;;;;;6.43;0.90;;;26.60;46.30;;;;;;5092635;28;20020;-79
2021/07/29 08:06:15;;;;;;;5.50;0.98;;;26.40;45.90;;;;;;5092652;28;20460;-79
2021/07/29 08:08:42;;;;;;;6.88;1.02;;;26.50;46.40;;;;;;5094911;28;20024;-78
2021/07/29 08:11:09;;;;;;;3.85;0.82;;;26.60;45.80;;;;;;5092347;28;20119;-80
2021/07/29 08:13:34;;;;;;;3.05;0.82;;;26.90;45.10;;;;;;5093957;28;20061;-78
2021/07/29 08:16:00;;;;;;;3.33;0.68;;;27.10;44.70;;;;;;5094696;28;20024;-79
2021/07/29 08:18:27;;;;;;;3.28;0.60;;;26.80;44.50;;;;;;5075392;28;20085;-80
2021/07/29 08:20:56;;;;;;;4.05;0.70;;;26.60;45.50;;;;;;5092766;28;20024;-80
2021/07/29 08:23:22;;;;;;;4.07;0.70;;;27.00;45.00;;;;;;5058672;28;20036;-80
2021/07/29 08:25:47;;;;;;;4.95;0.90;;;27.50;44.40;;;;;;5093159;28;20028;-82
2021/07/29 08:28:13;;;;;;;4.40;0.77;;;27.90;43.90;;;;;;5075358;28;20119;-77
2021/07/29 08:30:39;;;;;;;4.20;0.80;;;28.20;43.50;;;;;;5093753;28;20067;-79
2021/07/29 08:33:09;;;;;;;3.60;0.90;;;27.90;43.60;;;;;;5092178;28;20035;-80
2021/07/29 08:35:36;;;;;;;5.07;0.80;;;27.40;44.00;;;;;;5092374;28;20020;-79
2021/07/29 08:38:02;;;;;;;3.25;0.60;;;27.20;43.90;;;;;;5093483;28;20032;-79
2021/07/29 08:40:29;;;;;;;4.40;0.82;;;27.10;43.60;;;;;;5092071;28;20369;-79
2021/07/29 08:42:57;;;;;;;2.03;0.50;;;26.70;43.70;;;;;;5093257;28;20081;-80
2021/07/29 08:45:23;;;;;;;4.72;0.73;;;26.60;44.40;;;;;;5076133;28;20051;-78
2021/07/29 08:47:56;;;;;;;3.50;0.70;;;27.00;44.20;;;;;;5091930;28;20464;-84
2021/07/29 08:50:23;;;;;;;6.13;0.75;;;27.40;42.50;;;;;;5092217;28;20012;-78
2021/07/29 08:52:52;;;;;;;3.72;0.70;;;27.70;42.20;;;;;;5093155;28;20471;-82
2021/07/29 08:55:18;;;;;;;3.85;0.70;;;28.30;42.10;;;;;;5075728;28;20069;-78
2021/07/29 08:57:44;;;;;;;3.67;0.65;;;28.90;41.40;;;;;;5093567;28;20448;-77
2021/07/29 09:00:12;;;;;;;3.95;0.60;;;28.80;40.70;;;;;;5097305;28;20028;-77
2021/07/29 09:02:38;;;;;;;3.22;0.57;;;28.30;40.80;;;;;;5095572;28;20449;-76
2021/07/29 09:05:18;;;;;;;3.65;0.80;;;28.10;41.50;;;;;;5095535;28;20028;-77
2021/07/29 09:07:59;;;;;;;3.63;0.60;;;28.00;41.80;;;;;;5095711;28;20032;-77
2021/07/29 09:10:25;;;;;;;2.58;0.63;;;27.70;42.20;;;;;;5096881;28;20028;-77
2021/07/29 09:13:11;;;;;;;2.78;0.63;;;27.50;42.20;;;;;;5078890;28;20111;-77
2021/07/29 09:15:38;;;;;;;4.50;0.82;;;27.20;41.90;;;;;;5095709;28;20020;-77
2021/07/29 09:18:04;;;;;;;4.40;0.68;;;26.70;42.00;;;;;;5095891;28;20036;-77
2021/07/29 09:20:30;;;;;;;6.65;0.90;;;26.30;43.30;;;;;;5095939;28;20034;-76
2021/07/29 09:22:56;;;;;;;6.00;0.70;;;26.40;43.80;;;;;;5095841;28;20032;-78
2021/07/29 09:25:26;;;;;;;4.47;0.80;;;26.60;43.60;;;;;;5096529;28;20028;-77
2021/07/29 09:27:52;;;;;;;3.92;0.68;;;26.70;44.10;;;;;;5079065;28;20024;-76
2021/07/29 09:30:22;;;;;;;3.33;0.70;;;26.50;42.90;;;;;;5078273;28;20077;-76
2021/07/29 09:32:52;;;;;;;3.50;0.60;;;26.50;43.40;;;;;;5095425;28;20032;-77
2021/07/29 09:35:31;;;;;;;2.78;0.60;;;26.90;43.60;;;;;;5095490;28;20016;-77
2021/07/29 09:38:01;;;;;;;2.25;0.60;;;27.70;42.70;;;;;;5095440;28;20024;-82
2021/07/29 09:40:39;;;;;;;3.38;0.77;;;28.20;41.20;;;;;;5095334;28;20062;-76
2021/07/29 09:43:12;;;;;;;4.05;0.80;;;28.40;39.90;;;;;;5096730;28;20085;-81
2021/07/29 09:45:47;;;;;;;3.25;0.80;;;28.80;39.80;;;;;;5097099;28;20039;-81
2021/07/29 09:48:12;;;;;;;6.32;1.05;;;29.30;39.50;;;;;;5098843;28;20024;-76
2021/07/29 09:50:39;;;;;;;4.40;0.90;;;29.80;39.40;;;;;;5088087;28;20027;-82
2021/07/29 09:53:05;;;;;;;3.00;0.90;;;30.00;38.20;;;;;;5102460;28;20020;-81
2021/07/29 09:55:33;;;;;;;5.38;0.80;;;30.20;38.20;;;;;;5104044;28;20065;-80
2021/07/29 09:58:03;;;;;;;5.03;0.80;;;30.30;37.50;;;;;;5084503;28;20033;-79
2021/07/29 10:00:30;;;;;;;4.18;0.70;;;30.20;38.00;;;;;;5080034;28;20020;-79
2021/07/29 10:02:58;;;;;;;7.43;0.90;;;30.20;37.40;;;;;;5095025;28;20356;-80
2021/07/29 10:05:35;;;;;;;3.33;0.60;;;29.80;38.20;;;;;;5094515;28;20028;-78
2021/07/29 10:08:05;;;;;;;4.00;0.50;;;29.20;38.60;;;;;;5094929;28;20028;-81
2021/07/29 10:10:31;;;;;;;3.17;0.60;;;28.50;39.20;;;;;;5094994;28;20099;-78
2021/07/29 10:12:57;;;;;;;3.58;0.60;;;28.00;40.30;;;;;;5077402;28;20070;-77
2021/07/29 10:15:37;;;;;;;3.42;0.70;;;27.40;40.60;;;;;;5094506;28;20020;-79
2021/07/29 10:18:03;;;;;;;3.05;0.50;;;27.10;41.00;;;;;;5094718;28;20024;-82
2021/07/29 10:20:32;;;;;;;2.42;0.50;;;27.30;40.50;;;;;;5095003;28;20024;-79
2021/07/29 10:23:13;;;;;;;3.78;0.60;;;27.50;40.30;;;;;;5077716;28;20378;-79
2021/07/29 10:25:54;;;;;;;3.30;0.90;;;27.40;40.40;;;;;;5095533;28;20032;-77
2021/07/29 10:28:22;;;;;;;5.65;0.82;;;27.00;40.90;;;;;;5095826;28;20020;-77
2021/07/29 10:30:55;;;;;;;3.30;0.70;;;27.20;41.20;;;;;;5094277;28;20016;-77
2021/07/29 10:33:23;;;;;;;3.45;0.70;;;27.30;40.50;;;;;;5093923;28;20032;-78
2021/07/29 10:35:51;;;;;;;3.83;0.60;;;27.00;41.20;;;;;;5094414;28;20035;-77
2021/07/29 10:38:39;;;;;;;3.88;0.60;;;27.20;41.40;;;;;;5096235;28;20032;-78
2021/07/29 10:41:25;;;;;;;3.72;0.65;;;27.40;40.90;;;;;;5094736;28;20134;-81
2021/07/29 10:43:51;;;;;;;4.47;0.80;;;27.20;41.30;;;;;;5076965;28;20040;-78
2021/07/29 10:46:17;;;;;;;4.90;0.88;;;26.80;41.70;;;;;;5077595;28;20032;-77
2021/07/29 10:48:49;;;;;;;4.72;0.82;;;26.60;42.20;;;;;;5060943;28;20028;-76
2021/07/29 10:51:34;;;;;;;3.90;0.70;;;26.50;43.00;;;;;;5094318;28;20035;-76
2021/07/29 10:53:59;;;;;;;3.65;0.70;;;26.60;42.70;;;;;;5079411;28;20353;-81
2021/07/29 10:56:26;;;;;;;3.03;0.63;;;26.70;42.60;;;;;;5093719;28;20025;-77
2021/07/29 10:58:54;;;;;;;5.93;0.75;;;26.70;42.50;;;;;;5094844;28;20020;-76
2021/07/29 11:01:21;;;;;;;4.28;0.70;;;26.90;41.90;;;;;;5093271;28;20088;-76
2021/07/29 11:03:57;;;;;;;2.10;0.50;;;27.30;41.00;;;;;;5076186;28;20032;-77
2021/07/29 11:06:34;;;;;;;2.70;0.50;;;27.40;40.20;;;;;;5094803;28;20039;-78
2021/07/29 11:09:21;;;;;;;2.08;0.52;;;27.20;40.50;;;;;;5077978;28;20414;-77
2021/07/29 11:11:48;;;;;;;4.18;0.60;;;27.10;40.70;;;;;;5094331;28;20036;-77
2021/07/29 11:14:23;;;;;;;3.92;0.60;;;26.90;41.10;;;;;;5094859;28;20157;-78
2021/07/29 11:16:50;;;;;;;3.45;0.55;;;27.20;41.70;;;;;;5093029;28;20028;-77
2021/07/29 11:19:16;;;;;;;4.70;0.70;;;27.50;41.20;;;;;;5093322;28;20047;-77
2021/07/29 11:21:42;;;;;;;4.05;0.60;;;27.40;40.30;;;;;;5092720;28;20440;-76
2021/07/29 11:24:25;;;;;;;3.13;0.70;;;27.40;40.90;;;;;;5093102;28;20032;-76
2021/07/29 11:26:51;;;;;;;3.83;0.70;;;27.80;40.10;;;;;;5094503;28;20039;-77
2021/07/29 11:29:17;;;;;;;3.85;0.70;;;27.70;39.80;;;;;;5076236;28;20031;-77
2021/07/29 11:31:43;;;;;;;4.68;0.60;;;27.50;40.10;;;;;;5093252;28;20032;-77
2021/07/29 11:34:10;;;;;;;2.88;0.57;;;27.40;40.70;;;;;;5093274;28;20032;-77
2021/07/29 11:36:36;;;;;;;3.95;0.60;;;27.20;41.20;;;;;;5093903;28;20105;-77
2021/07/29 11:39:07;;;;;;;4.78;0.63;;;27.20;41.00;;;;;;5093001;28;20460;-76
2021/07/29 11:41:58;;;;;;;3.95;0.50;;;27.20;41.20;;;;;;5093904;28;20496;-76
2021/07/29 11:44:47;;;;;;;4.38;0.60;;;27.50;40.60;;;;;;5093544;28;20069;-77
2021/07/29 11:47:13;;;;;;;3.45;0.40;;;27.50;40.60;;;;;;5094235;28;20392;-79
2021/07/29 11:49:46;;;;;;;3.33;0.50;;;27.50;40.20;;;;;;5093957;28;20034;-75
2021/07/29 11:52:12;;;;;;;4.30;0.60;;;27.70;39.60;;;;;;5093907;28;20035;-75
2021/07/29 11:54:38;;;;;;;3.60;0.70;;;27.70;39.80;;;;;;5093342;28;20445;-76
2021/07/29 11:57:05;;;;;;;5.05;0.50;;;27.60;39.80;;;;;;5076171;28;20426;-76
2021/07/29 11:59:41;;;;;;;4.25;0.50;;;27.30;39.10;;;;;;5095580;28;20028;-78
2021/07/29 12:02:09;;;;;;;3.72;0.55;;;27.00;39.30;;;;;;5091403;28;20053;-77
2021/07/29 12:04:38;;;;;;;3.78;0.50;;;26.90;40.20;;;;;;5094140;28;20039;-77
2021/07/29 12:07:05;;;;;;;5.10;0.77;;;26.90;41.20;;;;;;5115678;28;20019;-76
2021/07/29 12:09:35;;;;;;;3.70;0.55;;;26.80;40.60;;;;;;5114805;28;20024;-75
2021/07/29 12:12:01;;;;;;;2.40;0.50;;;26.90;40.60;;;;;;5114523;28;20028;-76
2021/07/29 12:14:28;;;;;;;5.00;0.70;;;27.00;41.60;;;;;;5115440;28;20032;-79
2021/07/29 12:16:54;;;;;;;2.17;0.57;;;27.30;41.10;;;;;;5096528;28;20034;-77
2021/07/29 12:19:21;;;;;;;3.70;0.50;;;27.30;39.90;;;;;;5114835;28;20004;-83
2021/07/29 12:21:48;;;;;;;3.15;0.50;;;27.50;39.70;;;;;;5093828;28;20008;-76
2021/07/29 12:24:15;;;;;;;4.60;0.70;;;27.60;39.60;;;;;;5080706;28;20036;-77
2021/07/29 12:26:41;;;;;;;1.90;0.50;;;27.90;39.40;;;;;;5094116;28;20024;-76
2021/07/29 12:29:08;;;;;;;5.05;0.70;;;28.00;38.60;;;;;;5093603;28;20039;-76
2021/07/29 12:31:33;;;;;;;2.85;0.60;;;28.00;38.60;;;;;;5093299;28;20108;-76
2021/07/29 12:34:02;;;;;;;2.95;0.60;;;28.00;38.60;;;;;;5098369;28;20494;-78
2021/07/29 12:36:42;;;;;;;2.42;0.47;;;28.10;38.90;;;;;;5097018;28;20026;-77
2021/07/29 12:39:08;;;;;;;2.78;0.50;;;28.20;38.80;;;;;;5096839;28;20124;-75
2021/07/29 12:41:36;;;;;;;3.58;0.60;;;28.20;38.50;;;;;;5096695;28;20464;-75
2021/07/29 12:44:08;;;;;;;3.05;0.60;;;28.00;38.60;;;;;;5096758;28;20028;-75
2021/07/29 12:46:34;;;;;;;;;;;27.70;38.90;;;;;;5096802;28;20119;-76
2021/07/29 12:49:00;;;;;;;6.63;0.63;;;27.40;38.90;;;;;;5096055;28;20339;-77
2021/07/29 12:51:45;;;;;;;3.33;0.50;;;27.10;39.10;;;;;;5097073;28;20371;-76